Time;durP1;ratioP1;P1;durP2;ratioP2;P2;SDS_P1;SDS_P2;PMS_P1;PMS_P2;Temp;Humidity;BMP_temperature;BMP_pressure;BME280_temperature;BME280_humidity;BME280_pressure;Samples;Min_cycle;Max_cycle;Signal;HPM_P1;HPM_P2
2023/10/26 00:02:19;;;;;;;;;;;13.90;99.90;;;;;;5040685;28;20406;-72
2023/10/26 00:04:45;;;;;;;;;;;13.90;99.90;;;;;;5041777;28;19921;-72
2023/10/26 00:07:11;;;;;;;;;;;13.80;99.90;;;;;;5041395;28;19920;-72
2023/10/26 00:09:36;;;;;;;;;;;13.80;99.90;;;;;;5041861;28;20405;-72
2023/10/26 00:12:02;;;;;;;;;;;13.60;99.90;;;;;;5041834;28;20359;-72
2023/10/26 00:14:27;;;;;;;;;;;13.50;99.90;;;;;;5041066;28;20351;-72
2023/10/26 00:16:53;;;;;;;;;;;13.30;99.90;;;;;;5041138;28;19992;-72
2023/10/26 00:19:19;;;;;;;;;;;13.20;99.90;;;;;;5039305;28;20873;-73
2023/10/26 00:21:44;;;;;;;;;;;13.10;99.90;;;;;;5039792;28;20360;-71
2023/10/26 00:24:10;;;;;;;;;;;12.90;99.90;;;;;;5040120;28;19947;-72
2023/10/26 00:26:35;;;;;;;;;;;12.80;99.90;;;;;;5035244;28;20284;-72
2023/10/26 00:29:01;;;;;;;;;;;12.70;99.90;;;;;;5041763;28;19995;-71
2023/10/26 00:31:26;;;;;;;;;;;12.80;99.90;;;;;;5040886;28;20488;-71
2023/10/26 00:33:52;;;;;;;;;;;12.70;99.90;;;;;;5042701;28;19920;-71
2023/10/26 00:36:17;;;;;;;;;;;12.70;99.90;;;;;;5040495;28;19909;-71
2023/10/26 00:38:43;;;;;;;;;;;12.60;99.90;;;;;;5040900;28;20000;-72
2023/10/26 00:41:09;;;;;;;;;;;12.60;99.90;;;;;;5037840;28;19919;-72
2023/10/26 00:43:34;;;;;;;;;;;12.70;99.90;;;;;;5041281;28;19984;-71
2023/10/26 00:46:00;;;;;;;;;;;12.80;99.90;;;;;;5036798;28;20280;-72
2023/10/26 00:48:25;;;;;;;;;;;12.90;99.90;;;;;;5040217;28;19915;-72
2023/10/26 00:50:51;;;;;;;;;;;13.00;99.90;;;;;;5036247;28;19909;-72
2023/10/26 00:53:18;;;;;;;;;;;13.00;99.90;;;;;;5040153;28;19933;-71
2023/10/26 00:55:45;;;;;;;;;;;13.20;99.90;;;;;;5040879;28;19917;-72
2023/10/26 00:58:11;;;;;;;;;;;13.30;99.90;;;;;;5040499;28;20361;-72
2023/10/26 01:00:37;;;;;;;;;;;13.40;99.90;;;;;;5040700;28;19908;-72
2023/10/26 01:03:03;;;;;;;;;;;13.40;99.90;;;;;;5039704;28;20279;-71
2023/10/26 01:05:28;;;;;;;;;;;13.30;99.90;;;;;;5040524;28;19909;-72
2023/10/26 01:07:54;;;;;;;;;;;13.30;99.90;;;;;;5036642;28;19917;-72
2023/10/26 01:10:19;;;;;;;;;;;13.20;99.90;;;;;;5076202;28;21388;-72
2023/10/26 01:12:45;;;;;;;;;;;13.10;99.90;;;;;;5041062;28;20368;-71
2023/10/26 01:15:11;;;;;;;;;;;13.10;99.90;;;;;;5041044;28;19908;-71
2023/10/26 01:17:37;;;;;;;;;;;13.00;99.90;;;;;;5040256;28;19913;-71
2023/10/26 01:20:05;;;;;;;;;;;13.00;99.90;;;;;;5035960;28;19913;-72
2023/10/26 01:22:31;;;;;;;;;;;12.90;99.90;;;;;;5040054;28;19912;-71
2023/10/26 01:24:57;;;;;;;;;;;12.80;99.90;;;;;;5035773;28;19913;-71
2023/10/26 01:27:23;;;;;;;;;;;12.80;99.90;;;;;;5041299;28;20372;-72
2023/10/26 01:29:48;;;;;;;;;;;12.70;99.90;;;;;;5040424;28;19913;-73
2023/10/26 01:32:14;;;;;;;;;;;12.70;99.90;;;;;;5037440;28;21298;-71
2023/10/26 01:34:39;;;;;;;;;;;12.70;99.90;;;;;;5039896;28;19935;-71
2023/10/26 01:37:05;;;;;;;;;;;12.60;99.90;;;;;;5036244;28;19912;-71
2023/10/26 01:39:31;;;;;;;;;;;12.60;99.90;;;;;;5038431;28;20533;-71
2023/10/26 01:41:57;;;;;;;;;;;12.60;99.90;;;;;;5035305;28;20288;-71
2023/10/26 01:44:22;;;;;;;;;;;12.60;99.90;;;;;;5033458;28;19960;-71
2023/10/26 01:46:48;;;;;;;;;;;12.70;99.90;;;;;;5040034;28;19916;-73
2023/10/26 01:49:13;;;;;;;;;;;12.70;99.90;;;;;;5039219;28;19960;-71
2023/10/26 01:51:39;;;;;;;;;;;12.70;99.90;;;;;;5039046;28;20275;-71
2023/10/26 01:54:05;;;;;;;;;;;12.70;99.90;;;;;;5038643;28;19913;-72
2023/10/26 01:56:31;;;;;;;;;;;12.60;99.90;;;;;;5039525;28;19999;-72
2023/10/26 01:58:57;;;;;;;;;;;12.70;99.90;;;;;;5068448;28;19913;-72
2023/10/26 02:01:24;;;;;;;;;;;12.70;99.90;;;;;;5038909;28;20360;-72
2023/10/26 02:03:50;;;;;;;;;;;12.70;99.90;;;;;;5039788;28;19990;-71
2023/10/26 02:06:15;;;;;;;;;;;12.60;99.90;;;;;;5038231;28;20378;-73
2023/10/26 02:08:41;;;;;;;;;;;12.60;99.90;;;;;;5040909;28;19943;-71
2023/10/26 02:11:06;;;;;;;;;;;12.60;99.90;;;;;;5035909;28;20635;-72
2023/10/26 02:13:32;;;;;;;;;;;12.60;99.90;;;;;;5038817;28;20428;-71
2023/10/26 02:16:01;;;;;;;;;;;12.60;99.90;;;;;;5038592;28;20008;-72
2023/10/26 02:18:27;;;;;;;;;;;12.60;99.90;;;;;;5034505;28;20348;-72
2023/10/26 02:20:52;;;;;;;;;;;12.60;99.90;;;;;;5039706;28;20316;-72
2023/10/26 02:23:18;;;;;;;;;;;12.60;99.90;;;;;;5033626;28;19958;-73
2023/10/26 02:25:43;;;;;;;;;;;12.60;99.90;;;;;;5038468;28;19923;-72
2023/10/26 02:28:15;;;;;;;;;;;12.60;99.90;;;;;;5038976;28;19964;-72
2023/10/26 02:30:40;;;;;;;;;;;12.60;99.90;;;;;;5037422;28;19913;-71
2023/10/26 02:33:06;;;;;;;;;;;12.70;99.90;;;;;;5039259;28;19923;-72
2023/10/26 02:35:32;;;;;;;;;;;12.70;99.90;;;;;;5035885;28;19913;-73
2023/10/26 02:37:57;;;;;;;;;;;12.70;99.90;;;;;;5036722;28;19909;-71
2023/10/26 02:40:23;;;;;;;;;;;12.70;99.90;;;;;;5038592;28;19908;-72
2023/10/26 02:42:48;;;;;;;;;;;12.70;99.90;;;;;;5034713;28;20754;-72
2023/10/26 02:45:14;;;;;;;;;;;12.70;99.90;;;;;;5040579;28;19963;-72
2023/10/26 02:47:40;;;;;;;;;;;12.70;99.90;;;;;;5037491;28;19917;-72
2023/10/26 02:50:06;;;;;;;;;;;12.80;99.90;;;;;;5038864;28;19909;-72
2023/10/26 02:52:31;;;;;;;;;;;12.80;99.90;;;;;;5034178;28;19974;-72
2023/10/26 02:54:57;;;;;;;;;;;12.80;99.90;;;;;;5037243;28;20379;-71
2023/10/26 02:57:22;;;;;;;;;;;12.80;99.90;;;;;;5039067;28;20221;-71
2023/10/26 02:59:48;;;;;;;;;;;12.90;99.90;;;;;;5038129;28;19919;-71
2023/10/26 03:02:13;;;;;;;;;;;12.90;99.90;;;;;;5037759;28;19917;-72
2023/10/26 03:04:39;;;;;;;;;;;13.00;99.90;;;;;;5041173;28;19913;-71
2023/10/26 03:07:05;;;;;;;;;;;13.00;99.90;;;;;;5033829;28;19920;-72
2023/10/26 03:09:30;;;;;;;;;;;13.00;99.90;;;;;;5036147;28;20504;-72
2023/10/26 03:11:56;;;;;;;;;;;13.00;99.90;;;;;;5041663;28;19913;-72
2023/10/26 03:14:21;;;;;;;;;;;13.10;99.90;;;;;;5037541;28;19948;-71
2023/10/26 03:16:47;;;;;;;;;;;13.10;99.90;;;;;;5036584;28;20279;-73
2023/10/26 03:19:13;;;;;;;;;;;13.20;99.90;;;;;;5037682;28;20424;-71
2023/10/26 03:21:38;;;;;;;;;;;13.20;99.90;;;;;;5038446;28;19971;-72
2023/10/26 03:24:04;;;;;;;;;;;13.20;99.90;;;;;;5036498;28;19908;-72
2023/10/26 03:26:30;;;;;;;;;;;13.30;99.90;;;;;;5035592;28;20348;-72
2023/10/26 03:28:55;;;;;;;;;;;13.20;99.90;;;;;;5030987;28;20120;-71
2023/10/26 03:31:21;;;;;;;;;;;13.30;99.90;;;;;;5037555;28;20023;-71
2023/10/26 03:33:46;;;;;;;;;;;13.20;99.90;;;;;;5036735;28;19923;-72
2023/10/26 03:36:16;;;;;;;;;;;13.20;99.90;;;;;;5035014;28;20061;-72
2023/10/26 03:38:42;;;;;;;;;;;13.30;99.90;;;;;;5037511;28;19908;-72
2023/10/26 03:41:08;;;;;;;;;;;13.30;99.90;;;;;;5036232;28;20398;-71
2023/10/26 03:43:33;;;;;;;;;;;13.40;99.90;;;;;;5036086;28;20395;-72
2023/10/26 03:45:59;;;;;;;;;;;13.40;99.90;;;;;;5036198;28;19913;-72
2023/10/26 03:48:24;;;;;;;;;;;13.40;99.90;;;;;;5037606;28;20584;-72
2023/10/26 03:50:50;;;;;;;;;;;13.50;99.90;;;;;;5036840;28;19916;-73
2023/10/26 03:53:15;;;;;;;;;;;13.40;99.90;;;;;;5037651;28;20000;-71
2023/10/26 03:55:42;;;;;;;;;;;13.50;99.90;;;;;;5035982;28;20312;-71
2023/10/26 03:58:07;;;;;;;;;;;13.50;99.90;;;;;;5037115;28;20007;-72
2023/10/26 04:00:33;;;;;;;;;;;13.50;99.90;;;;;;5032931;28;20877;-72
2023/10/26 04:02:58;;;;;;;;;;;13.60;99.90;;;;;;5038071;28;19909;-71
2023/10/26 04:05:25;;;;;;;;;;;13.60;99.90;;;;;;5032082;28;19948;-72
2023/10/26 04:07:50;;;;;;;;;;;13.50;99.90;;;;;;5036992;28;19924;-72
2023/10/26 04:10:17;;;;;;;;;;;13.60;99.90;;;;;;5037425;28;20457;-73
2023/10/26 04:12:43;;;;;;;;;;;13.60;99.90;;;;;;5069703;28;19917;-71
2023/10/26 04:15:09;;;;;;;;;;;13.70;99.90;;;;;;5037556;28;20049;-72
2023/10/26 04:17:34;;;;;;;;;;;13.70;99.90;;;;;;5032880;28;19920;-72
2023/10/26 04:20:00;;;;;;;;;;;13.70;99.90;;;;;;5035699;28;19909;-72
2023/10/26 04:22:26;;;;;;;;;;;13.70;99.90;;;;;;5033445;28;19917;-72
2023/10/26 04:24:51;;;;;;;;;;;13.80;99.90;;;;;;5038371;28;19947;-72
2023/10/26 04:27:17;;;;;;;;;;;13.80;99.90;;;;;;5040443;28;20039;-73
2023/10/26 04:29:44;;;;;;;;;;;13.80;99.90;;;;;;5034426;28;20475;-72
2023/10/26 04:32:09;;;;;;;;;;;13.90;99.90;;;;;;5035509;28;19916;-72
2023/10/26 04:34:35;;;;;;;;;;;13.90;99.90;;;;;;5033211;28;19909;-72
2023/10/26 04:37:00;;;;;;;;;;;13.90;99.90;;;;;;5037532;28;20348;-72
2023/10/26 04:39:26;;;;;;;;;;;14.00;99.90;;;;;;5036991;28;19913;-72
2023/10/26 04:41:51;;;;;;;;;;;14.00;99.90;;;;;;5041461;28;19913;-72
2023/10/26 04:44:18;;;;;;;;;;;13.90;99.90;;;;;;5039687;28;20407;-71
2023/10/26 04:46:44;;;;;;;;;;;14.00;99.90;;;;;;5039072;28;20513;-72
2023/10/26 04:49:10;;;;;;;;;;;14.00;99.90;;;;;;5038974;28;19909;-72
2023/10/26 04:51:35;;;;;;;;;;;14.00;99.90;;;;;;5040000;28;19916;-71
2023/10/26 04:54:02;;;;;;;;;;;14.00;99.90;;;;;;5040151;28;20382;-71
2023/10/26 04:56:28;;;;;;;;;;;14.00;99.90;;;;;;5041296;28;20233;-72
2023/10/26 04:58:55;;;;;;;;;;;14.00;99.90;;;;;;5039513;28;19944;-73
2023/10/26 05:01:20;;;;;;;;;;;14.00;99.90;;;;;;5073315;28;20421;-72
2023/10/26 05:03:46;;;;;;;;;;;14.10;99.90;;;;;;5038165;28;19992;-72
2023/10/26 05:06:11;;;;;;;;;;;14.10;99.90;;;;;;5038749;28;19944;-73
2023/10/26 05:08:37;;;;;;;;;;;14.00;99.90;;;;;;5040373;28;20602;-72
2023/10/26 05:11:02;;;;;;;;;;;14.00;99.90;;;;;;5039470;28;19924;-71
2023/10/26 05:13:29;;;;;;;;;;;14.10;99.90;;;;;;5041694;28;19917;-71
2023/10/26 05:15:55;;;;;;;;;;;14.10;99.90;;;;;;5041615;28;19924;-72
2023/10/26 05:18:21;;;;;;;;;;;14.00;99.90;;;;;;5041453;28;20488;-71
2023/10/26 05:20:48;;;;;;;;;;;14.00;99.90;;;;;;5039693;28;19909;-73
2023/10/26 05:23:14;;;;;;;;;;;14.00;99.90;;;;;;5039823;28;19959;-72
2023/10/26 05:25:40;;;;;;;;;;;14.00;99.90;;;;;;5039423;28;19979;-72
2023/10/26 05:28:06;;;;;;;;;;;14.00;99.90;;;;;;5038866;28;19919;-72
2023/10/26 05:30:31;;;;;;;;;;;13.90;99.90;;;;;;5039675;28;19912;-72
2023/10/26 05:32:57;;;;;;;;;;;13.90;99.90;;;;;;5036506;28;19920;-71
2023/10/26 05:35:23;;;;;;;;;;;14.00;99.90;;;;;;5039652;28;20341;-71
2023/10/26 05:37:48;;;;;;;;;;;14.00;99.90;;;;;;5035869;28;19909;-73
2023/10/26 05:40:14;;;;;;;;;;;14.00;99.90;;;;;;5039105;28;19917;-72
2023/10/26 05:42:39;;;;;;;;;;;14.10;99.90;;;;;;5039054;28;20283;-71
2023/10/26 05:45:05;;;;;;;;;;;14.10;99.90;;;;;;5068360;28;20288;-71
2023/10/26 05:47:31;;;;;;;;;;;14.10;99.90;;;;;;5039968;28;20372;-72
2023/10/26 05:49:56;;;;;;;;;;;14.10;99.90;;;;;;5035203;28;19909;-71
2023/10/26 05:52:22;;;;;;;;;;;14.20;99.90;;;;;;5037674;28;19912;-72
2023/10/26 05:54:47;;;;;;;;;;;14.20;99.90;;;;;;5038249;28;19916;-72
2023/10/26 05:57:13;;;;;;;;;;;14.30;99.90;;;;;;5034816;28;19921;-71
2023/10/26 05:59:39;;;;;;;;;;;14.40;99.90;;;;;;5039684;28;19928;-72
2023/10/26 06:02:05;;;;;;;;;;;14.60;99.90;;;;;;5038892;28;19956;-71
2023/10/26 06:04:31;;;;;;;;;;;14.90;99.90;;;;;;5035950;28;20452;-72
2023/10/26 06:06:56;;;;;;;;;;;14.90;99.90;;;;;;5039372;28;20229;-72
2023/10/26 06:09:22;;;;;;;;;;;14.80;99.90;;;;;;5038435;28;19920;-71
2023/10/26 06:11:48;;;;;;;;;;;14.70;99.90;;;;;;5035293;28;20062;-73
2023/10/26 06:14:13;;;;;;;;;;;14.60;99.90;;;;;;5041616;28;20797;-71
2023/10/26 06:16:39;;;;;;;;;;;14.60;99.90;;;;;;5038905;28;20471;-72
2023/10/26 06:19:05;;;;;;;;;;;14.60;99.90;;;;;;5036434;28;20299;-69
2023/10/26 06:21:32;;;;;;;;;;;14.60;99.90;;;;;;5037907;28;19912;-71
2023/10/26 06:23:57;;;;;;;;;;;14.60;99.90;;;;;;5034361;28;19913;-70
2023/10/26 06:26:23;;;;;;;;;;;14.60;99.90;;;;;;5037192;28;19951;-70
2023/10/26 06:28:49;;;;;;;;;;;14.60;99.90;;;;;;5038724;28;19912;-71
2023/10/26 06:31:14;;;;;;;;;;;14.60;99.90;;;;;;5041349;28;20011;-70
2023/10/26 06:33:40;;;;;;;;;;;14.60;99.90;;;;;;5035612;28;20755;-71
2023/10/26 06:36:06;;;;;;;;;;;14.50;99.90;;;;;;5036549;28;20726;-70
2023/10/26 06:38:31;;;;;;;;;;;14.50;99.90;;;;;;5042041;28;19913;-70
2023/10/26 06:40:57;;;;;;;;;;;14.60;99.90;;;;;;5042551;28;19935;-71
2023/10/26 06:43:23;;;;;;;;;;;14.60;99.90;;;;;;5036781;28;19912;-69
2023/10/26 06:45:48;;;;;;;;;;;14.60;99.90;;;;;;5036242;28;20495;-68
2023/10/26 06:48:14;;;;;;;;;;;14.70;99.90;;;;;;5038003;28;20721;-70
2023/10/26 06:50:39;;;;;;;;;;;14.80;99.90;;;;;;5037815;28;20284;-70
2023/10/26 06:53:05;;;;;;;;;;;14.80;99.90;;;;;;5043441;28;19921;-70
2023/10/26 06:55:33;;;;;;;;;;;14.80;99.90;;;;;;5038339;28;19992;-69
2023/10/26 06:57:59;;;;;;;;;;;14.90;99.90;;;;;;5037885;28;19936;-70
2023/10/26 07:00:24;;;;;;;;;;;15.10;99.90;;;;;;5037443;28;20377;-70
2023/10/26 07:02:50;;;;;;;;;;;15.20;99.90;;;;;;5041636;28;20677;-70
2023/10/26 07:05:16;;;;;;;;;;;15.20;99.90;;;;;;5033371;28;20390;-70
2023/10/26 07:07:42;;;;;;;;;;;15.60;99.90;;;;;;5036810;28;19913;-70
2023/10/26 07:10:14;;;;;;;;;;;15.90;99.90;;;;;;5041119;28;20292;-71
2023/10/26 07:12:40;;;;;;;;;;;16.00;99.90;;;;;;5035104;28;19921;-70
2023/10/26 07:15:06;;;;;;;;;;;16.10;99.90;;;;;;5035930;28;19913;-70
2023/10/26 07:17:34;;;;;;;;;;;16.00;99.90;;;;;;5037914;28;19952;-71
2023/10/26 07:20:02;;;;;;;;;;;16.00;99.90;;;;;;5035583;28;19998;-72
2023/10/26 07:22:27;;;;;;;;;;;16.00;99.90;;;;;;5066697;28;19928;-70
2023/10/26 07:24:53;;;;;;;;;;;16.00;99.90;;;;;;5032989;28;20003;-69
2023/10/26 07:27:19;;;;;;;;;;;16.00;99.90;;;;;;5035596;28;20150;-69
2023/10/26 07:29:46;;;;;;;;;;;16.00;99.90;;;;;;5033459;28;19924;-70
2023/10/26 07:32:12;;;;;;;;;;;16.00;99.90;;;;;;5038783;28;19917;-70
2023/10/26 07:34:37;;;;;;;;;;;16.20;99.90;;;;;;5036949;28;20701;-71
2023/10/26 07:37:03;;;;;;;;;;;16.40;99.90;;;;;;5031936;28;20427;-70
2023/10/26 07:39:31;;;;;;;;;;;16.60;99.90;;;;;;5037237;28;19956;-70
2023/10/26 07:41:58;;;;;;;;;;;17.50;99.90;;;;;;5035537;28;19912;-70
2023/10/26 07:44:24;;;;;;;;;;;18.90;99.90;;;;;;5031940;28;19923;-71
2023/10/26 07:46:49;;;;;;;;;;;19.80;99.70;;;;;;5039387;28;19958;-70
2023/10/26 07:49:15;;;;;;;;;;;20.70;97.90;;;;;;5032880;28;20294;-70
2023/10/26 07:51:40;;;;;;;;;;;20.90;96.40;;;;;;5037374;28;19909;-72
2023/10/26 07:54:06;;;;;;;;;;;20.40;96.70;;;;;;5035579;28;19913;-71
2023/10/26 07:56:31;;;;;;;;;;;19.90;97.30;;;;;;5040687;28;19920;-70
2023/10/26 07:58:58;;;;;;;;;;;19.40;96.80;;;;;;5039844;28;19921;-71
2023/10/26 08:01:23;;;;;;;;;;;19.10;97.50;;;;;;5039523;28;19994;-72
2023/10/26 08:03:49;;;;;;;;;;;18.80;98.00;;;;;;5044660;28;19921;-71
2023/10/26 08:06:14;;;;;;;;;;;18.60;98.10;;;;;;5043349;28;19960;-71
2023/10/26 08:08:40;;;;;;;;;;;18.20;98.90;;;;;;5045772;28;19927;-71
2023/10/26 08:11:15;;;;;;;;;;;18.10;99.30;;;;;;5045435;28;19913;-71
2023/10/26 08:13:41;;;;;;;;;;;18.20;99.10;;;;;;5046938;28;19913;-70
2023/10/26 08:16:06;;;;;;;;;;;18.30;98.80;;;;;;5048953;28;19912;-71
2023/10/26 08:18:32;;;;;;;;;;;18.50;98.50;;;;;;5048629;28;20004;-71
2023/10/26 08:20:58;;;;;;;;;;;18.90;98.50;;;;;;5048266;28;19924;-70
2023/10/26 08:23:24;;;;;;;;;;;19.10;97.80;;;;;;5046566;28;20024;-72
2023/10/26 08:25:50;;;;;;;;;;;19.10;97.50;;;;;;5064265;28;19920;-71
2023/10/26 08:28:17;;;;;;;;;;;19.00;97.40;;;;;;5046284;28;20307;-71
2023/10/26 08:30:45;;;;;;;;;;;18.90;98.10;;;;;;5042557;28;19932;-71
2023/10/26 08:33:12;;;;;;;;;;;18.90;98.10;;;;;;5050780;28;19963;-71
2023/10/26 08:35:39;;;;;;;;;;;19.00;98.00;;;;;;5049719;28;20356;-71
2023/10/26 08:38:04;;;;;;;;;;;19.10;97.70;;;;;;5046001;28;20379;-70
2023/10/26 08:40:30;;;;;;;;;;;18.90;97.80;;;;;;5051595;28;19967;-70
2023/10/26 08:42:57;;;;;;;;;;;18.90;99.90;;;;;;5046362;28;20367;-70
2023/10/26 08:45:23;;;;;;;;;;;18.90;98.80;;;;;;5047524;28;19959;-69
2023/10/26 08:47:50;;;;;;;;;;;19.00;98.10;;;;;;5051982;28;19916;-72
2023/10/26 08:50:23;;;;;;;;;;;19.00;97.60;;;;;;5050108;28;19963;-71
2023/10/26 08:52:49;;;;;;;;;;;19.10;97.90;;;;;;5048646;28;19996;-70
2023/10/26 08:55:15;;;;;;;;;;;19.50;97.40;;;;;;5043558;28;20340;-71
2023/10/26 08:57:45;;;;;;;;;;;20.10;96.70;;;;;;5046137;28;19970;-71
2023/10/26 09:00:11;;;;;;;;;;;20.30;95.70;;;;;;5042990;28;19944;-70
2023/10/26 09:02:38;;;;;;;;;;;20.10;95.70;;;;;;5046249;28;20506;-70
2023/10/26 09:05:04;;;;;;;;;;;19.70;96.30;;;;;;5046891;28;19912;-70
2023/10/26 09:07:30;;;;;;;;;;;19.40;96.00;;;;;;5043103;28;19954;-71
2023/10/26 09:09:55;;;;;;;;;;;19.50;96.40;;;;;;5043748;28;19960;-72
2023/10/26 09:12:21;;;;;;;;;;;19.50;96.60;;;;;;5048060;28;19917;-70
2023/10/26 09:14:59;;;;;;;;;;;19.80;96.10;;;;;;5044041;28;19909;-71
2023/10/26 09:17:28;;;;;;;;;;;20.10;95.90;;;;;;5047463;28;20039;-70
2023/10/26 09:19:54;;;;;;;;;;;20.50;95.20;;;;;;5047107;28;19919;-70
2023/10/26 09:22:34;;;;;;;;;;;20.70;94.80;;;;;;5044894;28;20045;-70
2023/10/26 09:25:05;;;;;;;;;;;20.90;94.10;;;;;;5044963;28;20351;-71
2023/10/26 09:27:31;;;;;;;;;;;20.80;93.70;;;;;;5076768;28;19909;-70
2023/10/26 09:29:56;;;;;;;;;;;20.80;93.80;;;;;;5045584;28;19909;-69
2023/10/26 09:32:30;;;;;;;;;;;20.80;93.40;;;;;;5045657;28;20244;-69
2023/10/26 09:34:55;;;;;;;;;;;20.80;93.30;;;;;;5047907;28;19923;-69
2023/10/26 09:37:21;;;;;;;;;;;20.90;93.60;;;;;;5046435;28;20606;-69
2023/10/26 09:39:47;;;;;;;;;;;21.10;93.60;;;;;;5043189;28;19913;-69
2023/10/26 09:42:12;;;;;;;;;;;21.20;93.00;;;;;;5045292;28;20272;-70
2023/10/26 09:44:38;;;;;;;;;;;21.40;92.60;;;;;;5047237;28;19974;-71
2023/10/26 09:47:06;;;;;;;;;;;21.80;92.30;;;;;;5046272;28;19912;-71
2023/10/26 09:49:31;;;;;;;;;;;22.60;92.00;;;;;;5048427;28;20257;-71
2023/10/26 09:51:58;;;;;;;;;;;24.70;89.30;;;;;;5045600;28;19963;-70
2023/10/26 09:54:35;;;;;;;;;;;27.10;82.10;;;;;;5047422;28;19913;-71
2023/10/26 09:57:04;;;;;;;;;;;26.90;77.30;;;;;;5045124;28;19916;-69
2023/10/26 09:59:30;;;;;;;;;;;27.00;74.80;;;;;;5047933;28;19916;-71
2023/10/26 10:01:55;;;;;;;;;;;26.60;75.20;;;;;;5076059;28;20451;-71
2023/10/26 10:04:36;;;;;;;;;;;27.30;73.30;;;;;;5045210;28;20007;-72
2023/10/26 10:07:02;;;;;;;;;;;27.80;71.60;;;;;;5045869;28;19909;-71
2023/10/26 10:09:28;;;;;;;;;;;29.80;67.70;;;;;;5046505;28;19921;-71
2023/10/26 10:12:03;;;;;;;;;;;31.40;65.40;;;;;;5046794;28;19943;-70
2023/10/26 10:14:46;;;;;;;;;;;31.10;62.30;;;;;;5044055;28;19909;-72
2023/10/26 10:17:12;;;;;;;;;;;31.30;61.10;;;;;;5056632;28;20451;-72
2023/10/26 10:19:40;;;;;;;;;;;31.70;59.80;;;;;;5046547;28;19916;-72
2023/10/26 10:22:29;;;;;;;;;;;30.20;59.30;;;;;;5050511;28;19909;-71
2023/10/26 10:24:54;;;;;;;;;;;28.80;61.20;;;;;;5030784;28;20520;-71
2023/10/26 10:27:20;;;;;;;;;;;27.90;61.80;;;;;;5040465;28;19970;-76
2023/10/26 10:29:46;;;;;;;;;;;29.50;61.00;;;;;;5048324;28;20002;-76
2023/10/26 10:32:11;;;;;;;;;;;31.70;58.80;;;;;;5048198;28;19920;-76
2023/10/26 10:34:44;;;;;;;;;;;34.00;57.60;;;;;;5074695;28;19912;-75
2023/10/26 10:37:21;;;;;;;;;;;35.70;54.60;;;;;;5048875;28;19913;-76
2023/10/26 10:40:20;;;;;;;;;;;36.40;52.10;;;;;;5047754;28;19916;-76
2023/10/26 10:42:47;;;;;;;;;;;34.20;52.10;;;;;;4989708;28;19952;-76
2023/10/26 10:45:13;;;;;;;;;;;33.30;52.60;;;;;;5044966;28;19995;-76
2023/10/26 10:47:39;;;;;;;;;;;31.40;53.70;;;;;;5049535;28;20004;-74
2023/10/26 10:50:18;;;;;;;;;;;29.30;55.20;;;;;;5080619;28;19951;-76
2023/10/26 10:52:45;;;;;;;;;;;27.90;56.70;;;;;;5047985;28;19921;-76
2023/10/26 10:55:10;;;;;;;;;;;27.00;57.80;;;;;;5048286;28;20001;-75
2023/10/26 10:57:50;;;;;;;;;;;26.10;59.20;;;;;;5046224;28;19908;-76
2023/10/26 11:00:16;;;;;;;;;;;25.30;60.40;;;;;;5049521;28;19947;-76
2023/10/26 11:02:46;;;;;;;;;;;24.70;61.60;;;;;;5050673;28;20354;-75
2023/10/26 11:05:11;;;;;;;;;;;24.20;61.90;;;;;;5040512;28;19912;-76
2023/10/26 11:07:37;;;;;;;;;;;23.90;62.80;;;;;;5047288;28;19935;-76
2023/10/26 11:10:02;;;;;;;;;;;23.60;63.70;;;;;;5049713;28;19939;-76
2023/10/26 11:12:30;;;;;;;;;;;23.20;64.10;;;;;;5041714;28;20284;-75
2023/10/26 11:14:56;;;;;;;;;;;22.90;65.10;;;;;;5045165;28;20465;-75
2023/10/26 11:17:25;;;;;;;;;;;22.60;66.40;;;;;;5048239;28;19909;-75
2023/10/26 11:19:51;;;;;;;;;;;22.30;66.90;;;;;;5079605;28;20007;-76
2023/10/26 11:22:17;;;;;;;;;;;22.00;67.60;;;;;;5047970;28;20007;-76
2023/10/26 11:24:43;;;;;;;;;;;21.80;67.90;;;;;;5046082;28;19970;-76
2023/10/26 11:27:09;;;;;;;;;;;21.60;68.70;;;;;;5048304;28;20620;-76
2023/10/26 11:29:35;;;;;;;;;;;21.30;69.80;;;;;;5046935;28;19919;-76
2023/10/26 11:32:00;;;;;;;;;;;21.00;70.30;;;;;;5047781;28;20383;-75
2023/10/26 11:34:28;;;;;;;;;;;20.80;70.60;;;;;;5046473;28;20368;-75
2023/10/26 11:36:53;;;;;;;;;;;20.50;71.90;;;;;;5045449;28;19917;-76
2023/10/26 11:39:19;;;;;;;;;;;20.40;72.10;;;;;;5047077;28;20283;-76
2023/10/26 11:41:51;;;;;;;;;;;20.20;74.50;;;;;;5042530;28;19921;-75
2023/10/26 11:44:27;;;;;;;;;;;20.30;75.10;;;;;;5045964;28;19948;-75
2023/10/26 11:46:56;;;;;;;;;;;20.50;74.30;;;;;;5045468;28;19932;-75
2023/10/26 11:49:35;;;;;;;;;;;20.50;74.60;;;;;;5043028;28;20384;-76
2023/10/26 11:52:01;;;;;;;;;;;20.50;73.70;;;;;;5047333;28;19917;-76
2023/10/26 11:54:26;;;;;;;;;;;20.40;73.80;;;;;;5038815;28;19919;-74
2023/10/26 11:56:52;;;;;;;;;;;20.50;74.60;;;;;;5047041;28;19920;-76
2023/10/26 11:59:17;;;;;;;;;;;20.50;74.40;;;;;;5041639;28;19992;-76
2023/10/26 12:01:43;;;;;;;;;;;20.60;74.80;;;;;;5036574;28;19920;-74
2023/10/26 12:04:11;;;;;;;;;;;20.60;75.70;;;;;;5047013;28;19904;-74
2023/10/26 12:06:37;;;;;;;;;;;20.60;75.10;;;;;;5039658;28;19919;-76
2023/10/26 12:09:04;;;;;;;;;;;20.70;75.70;;;;;;5043533;28;19925;-76
2023/10/26 12:11:30;;;;;;;;;;;20.80;75.70;;;;;;5039944;28;19912;-74
2023/10/26 12:13:56;;;;;;;;;;;20.70;75.60;;;;;;5043771;28;19912;-76
2023/10/26 12:16:21;;;;;;;;;;;20.60;78.30;;;;;;5042298;28;19913;-75
2023/10/26 12:18:47;;;;;;;;;;;20.40;79.80;;;;;;5045776;28;19994;-76
2023/10/26 12:21:12;;;;;;;;;;;20.30;82.20;;;;;;5044067;28;19909;-76
2023/10/26 12:23:38;;;;;;;;;;;20.20;82.20;;;;;;5045866;28;19909;-76
2023/10/26 12:26:03;;;;;;;;;;;20.10;82.20;;;;;;5044845;28;19924;-77
2023/10/26 12:28:29;;;;;;;;;;;19.90;81.80;;;;;;5044523;28;19913;-77
2023/10/26 12:30:54;;;;;;;;;;;19.80;82.50;;;;;;5044719;28;19919;-75
2023/10/26 12:33:20;;;;;;;;;;;19.70;83.10;;;;;;5042433;28;20453;-79
2023/10/26 12:35:46;;;;;;;;;;;19.70;82.90;;;;;;5044634;28;19913;-79
2023/10/26 12:38:12;;;;;;;;;;;19.80;82.60;;;;;;5043475;28;20407;-79
2023/10/26 12:40:38;;;;;;;;;;;19.90;83.30;;;;;;5040421;28;19915;-78
2023/10/26 12:43:03;;;;;;;;;;;20.00;82.20;;;;;;5044409;28;19919;-79
2023/10/26 12:45:29;;;;;;;;;;;20.20;81.10;;;;;;5042238;28;19913;-76
2023/10/26 12:47:55;;;;;;;;;;;20.20;81.30;;;;;;5039956;28;19924;-77
2023/10/26 12:50:21;;;;;;;;;;;20.30;81.50;;;;;;5058727;28;19913;-78
2023/10/26 12:52:47;;;;;;;;;;;20.30;80.70;;;;;;5064581;28;19917;-77
2023/10/26 12:55:13;;;;;;;;;;;20.20;80.50;;;;;;5066869;28;19909;-79
2023/10/26 12:57:38;;;;;;;;;;;20.00;81.80;;;;;;5058073;28;19920;-78
2023/10/26 13:00:04;;;;;;;;;;;19.90;82.60;;;;;;5071464;28;19913;-78
2023/10/26 13:02:30;;;;;;;;;;;19.70;82.70;;;;;;5067792;28;19913;-76
2023/10/26 13:04:55;;;;;;;;;;;19.60;83.30;;;;;;5050700;28;19913;-78
2023/10/26 13:07:24;;;;;;;;;;;19.40;84.40;;;;;;5081805;28;20024;-78
2023/10/26 13:09:49;;;;;;;;;;;19.30;87.00;;;;;;5048656;28;19924;-79
2023/10/26 13:12:15;;;;;;;;;;;19.20;86.70;;;;;;5043790;28;20550;-79
2023/10/26 13:14:41;;;;;;;;;;;19.10;87.20;;;;;;5043661;28;19909;-78
2023/10/26 13:17:06;;;;;;;;;;;18.90;87.60;;;;;;5045078;28;20572;-79
2023/10/26 13:19:32;;;;;;;;;;;18.80;89.20;;;;;;5043134;28;19913;-77
2023/10/26 13:21:57;;;;;;;;;;;18.60;89.50;;;;;;5047237;28;20314;-78
2023/10/26 13:24:23;;;;;;;;;;;18.50;90.20;;;;;;5047547;28;19913;-76
2023/10/26 13:26:50;;;;;;;;;;;18.50;90.60;;;;;;5045209;28;20034;-78
2023/10/26 13:29:15;;;;;;;;;;;18.50;91.10;;;;;;5047732;28;19920;-79
2023/10/26 13:31:41;;;;;;;;;;;18.40;90.90;;;;;;5051829;28;19909;-78
2023/10/26 13:34:07;;;;;;;;;;;18.40;91.30;;;;;;5049831;28;20339;-77
2023/10/26 13:36:32;;;;;;;;;;;18.40;91.50;;;;;;5047183;28;19996;-77
2023/10/26 13:38:58;;;;;;;;;;;18.30;91.90;;;;;;5053677;28;19909;-78
2023/10/26 13:41:23;;;;;;;;;;;18.40;91.90;;;;;;5052448;28;19921;-75
2023/10/26 13:43:50;;;;;;;;;;;18.40;91.90;;;;;;5046620;28;20574;-78
2023/10/26 13:46:15;;;;;;;;;;;18.50;92.10;;;;;;5081453;28;19935;-79
2023/10/26 13:48:41;;;;;;;;;;;18.40;92.20;;;;;;5053208;28;19913;-79
2023/10/26 13:51:06;;;;;;;;;;;18.30;92.00;;;;;;5052379;28;19913;-78
2023/10/26 13:53:32;;;;;;;;;;;18.30;92.90;;;;;;5054167;28;19912;-79
2023/10/26 13:56:01;;;;;;;;;;;18.20;92.90;;;;;;5051262;28;20334;-79
2023/10/26 13:58:26;;;;;;;;;;;18.20;92.80;;;;;;5077595;28;19909;-77
2023/10/26 14:00:52;;;;;;;;;;;18.20;92.70;;;;;;5050436;28;19909;-80
2023/10/26 14:03:17;;;;;;;;;;;18.10;93.00;;;;;;5047884;28;20576;-80
2023/10/26 14:05:50;;;;;;;;;;;18.00;93.60;;;;;;5049485;28;19920;-78
2023/10/26 14:08:16;;;;;;;;;;;17.90;94.10;;;;;;5046410;28;19923;-78
2023/10/26 14:10:42;;;;;;;;;;;18.00;94.60;;;;;;5041978;28;20459;-78
2023/10/26 14:13:08;;;;;;;;;;;18.00;95.10;;;;;;5078976;28;20008;-79